Time;durP1;ratioP1;P1;durP2;ratioP2;P2;SDS_P1;SDS_P2;PMS_P1;PMS_P2;Temp;Humidity;BMP_temperature;BMP_pressure;BME280_temperature;BME280_humidity;BME280_pressure;Samples;Min_cycle;Max_cycle;Signal;HPM_P1;HPM_P2
2023/09/16 00:02:39;;;;;;;13.05;6.90;;;18.20;99.90;;;;;;5012995;28;20048;-55
2023/09/16 00:05:44;;;;;;;16.90;6.95;;;18.20;99.90;;;;;;5007565;28;20041;-53
2023/09/16 00:08:47;;;;;;;9.00;6.38;;;18.20;99.90;;;;;;5012804;28;20041;-54
2023/09/16 00:11:51;;;;;;;11.43;6.05;;;18.20;99.90;;;;;;5013085;28;20040;-55
2023/09/16 00:14:55;;;;;;;8.13;6.55;;;18.20;99.90;;;;;;5005568;28;20058;-56
2023/09/16 00:18:00;;;;;;;9.00;5.93;;;18.20;99.90;;;;;;5013051;28;20044;-57
2023/09/16 00:21:04;;;;;;;8.50;5.95;;;18.20;99.90;;;;;;5012806;28;20053;-59
2023/09/16 00:24:10;;;;;;;10.18;6.40;;;18.20;99.90;;;;;;5005314;28;20041;-57
2023/09/16 00:27:13;;;;;;;9.23;6.05;;;18.20;99.90;;;;;;5012919;28;20400;-57
2023/09/16 00:30:17;;;;;;;10.63;6.72;;;18.20;99.90;;;;;;5007042;28;20512;-56
2023/09/16 00:33:21;;;;;;;8.65;6.18;;;18.10;99.90;;;;;;5006983;28;20037;-57
2023/09/16 00:36:25;;;;;;;9.15;6.10;;;18.10;99.90;;;;;;5012466;28;20041;-53
2023/09/16 00:39:29;;;;;;;15.98;6.38;;;18.10;99.90;;;;;;5006703;28;20041;-56
2023/09/16 00:42:37;;;;;;;8.68;5.88;;;18.20;99.90;;;;;;5008611;28;20504;-56
2023/09/16 00:45:42;;;;;;;10.20;6.40;;;18.30;99.90;;;;;;5012165;28;20049;-53
2023/09/16 00:48:46;;;;;;;15.40;6.65;;;18.30;99.90;;;;;;5004361;28;20053;-57
2023/09/16 00:51:50;;;;;;;9.55;6.25;;;18.40;99.90;;;;;;5011421;28;20449;-54
2023/09/16 00:54:54;;;;;;;8.82;6.85;;;18.30;99.90;;;;;;5011630;28;20037;-57
2023/09/16 00:57:58;;;;;;;9.35;6.25;;;18.20;99.90;;;;;;5009602;28;20049;-55
2023/09/16 01:01:02;;;;;;;12.00;6.72;;;18.30;99.90;;;;;;5011910;28;20049;-55
2023/09/16 01:04:07;;;;;;;9.02;6.45;;;18.30;99.90;;;;;;5010911;28;20512;-55
2023/09/16 01:07:11;;;;;;;10.23;6.80;;;18.30;99.90;;;;;;5004109;28;20532;-56
2023/09/16 01:10:20;;;;;;;9.57;6.55;;;18.30;99.90;;;;;;5011838;28;20036;-55
2023/09/16 01:13:24;;;;;;;14.63;7.18;;;18.20;99.90;;;;;;5011574;28;20033;-54
2023/09/16 01:16:47;;;;;;;13.18;6.65;;;18.20;99.90;;;;;;5007202;28;20049;-58
2023/09/16 01:20:11;;;;;;;11.90;6.70;;;18.10;99.90;;;;;;5011891;28;20704;-56
2023/09/16 01:23:18;;;;;;;8.73;6.32;;;18.00;99.90;;;;;;5008754;28;20053;-59
2023/09/16 01:26:22;;;;;;;10.00;7.10;;;17.80;99.90;;;;;;5011724;28;20044;-56
2023/09/16 01:29:27;;;;;;;11.70;8.50;;;17.70;99.90;;;;;;5007285;28;20049;-56
2023/09/16 01:32:53;;;;;;;10.55;7.38;;;17.70;99.90;;;;;;5007366;28;20045;-57
2023/09/16 01:36:03;;;;;;;13.20;8.52;;;17.70;99.90;;;;;;5011486;28;20049;-58
2023/09/16 01:39:09;;;;;;;11.27;7.97;;;17.80;99.90;;;;;;5007751;28;20036;-56
2023/09/16 01:42:15;;;;;;;13.13;8.45;;;17.80;99.90;;;;;;5010436;28;20041;-58
2023/09/16 01:45:19;;;;;;;11.88;7.63;;;17.80;99.90;;;;;;5011082;28;20096;-57
2023/09/16 01:48:23;;;;;;;10.98;7.70;;;17.80;99.90;;;;;;5008646;28;20384;-53
2023/09/16 01:51:27;;;;;;;11.32;7.47;;;17.80;99.90;;;;;;5010996;28;20049;-56
2023/09/16 01:54:31;;;;;;;9.43;7.45;;;17.70;99.90;;;;;;5006676;28;20037;-57
2023/09/16 01:57:35;;;;;;;10.63;7.20;;;17.70;99.90;;;;;;5007568;28;20037;-57
2023/09/16 02:00:38;;;;;;;12.25;7.70;;;17.70;99.90;;;;;;5010418;28;20044;-57
2023/09/16 02:03:42;;;;;;;11.98;8.20;;;17.80;99.90;;;;;;5005922;28;20041;-54
2023/09/16 02:06:46;;;;;;;9.93;7.38;;;17.80;99.90;;;;;;5011154;28;20052;-54
2023/09/16 02:09:51;;;;;;;9.90;6.65;;;17.90;99.90;;;;;;5010051;28;20041;-53
2023/09/16 02:12:56;;;;;;;10.20;6.85;;;18.00;99.90;;;;;;5009480;28;20045;-54
2023/09/16 02:16:01;;;;;;;9.80;6.47;;;18.00;99.90;;;;;;5014105;28;20049;-55
2023/09/16 02:19:06;;;;;;;8.13;6.70;;;18.00;99.90;;;;;;5014338;28;20045;-57
2023/09/16 02:22:10;;;;;;;13.25;7.88;;;18.20;99.90;;;;;;5013177;28;20037;-56
2023/09/16 02:25:15;;;;;;;10.48;6.32;;;18.20;99.90;;;;;;5007183;28;20045;-54
2023/09/16 02:28:20;;;;;;;9.13;6.63;;;18.20;99.90;;;;;;5015085;28;20049;-53
2023/09/16 02:31:27;;;;;;;9.68;6.90;;;18.00;99.90;;;;;;5008053;28;20049;-57
2023/09/16 02:34:36;;;;;;;8.93;6.85;;;17.70;99.90;;;;;;5013688;28;20397;-55
2023/09/16 02:37:40;;;;;;;14.82;6.80;;;17.70;99.90;;;;;;5013209;28;20041;-53
2023/09/16 02:40:44;;;;;;;10.90;7.55;;;17.70;99.90;;;;;;5013933;28;20113;-54
2023/09/16 02:43:50;;;;;;;9.25;6.35;;;17.70;99.90;;;;;;5013457;28;20500;-57
2023/09/16 02:46:55;;;;;;;14.05;7.55;;;17.80;99.90;;;;;;5013562;28;20041;-54
2023/09/16 02:49:58;;;;;;;8.70;6.78;;;17.80;99.90;;;;;;5012890;28;20049;-54
2023/09/16 02:53:02;;;;;;;10.95;7.55;;;17.80;99.90;;;;;;5013551;28;20045;-54
2023/09/16 02:56:09;;;;;;;11.40;6.43;;;17.90;99.90;;;;;;5011961;28;20045;-55
2023/09/16 02:59:13;;;;;;;10.88;6.82;;;18.00;99.90;;;;;;5006942;28;20397;-54
2023/09/16 03:02:17;;;;;;;10.10;7.10;;;17.80;99.90;;;;;;5013477;28;20044;-54
2023/09/16 03:05:22;;;;;;;13.60;7.53;;;17.40;99.90;;;;;;5010327;28;20037;-53
2023/09/16 03:08:25;;;;;;;9.80;6.97;;;17.30;99.90;;;;;;5014325;28;20041;-54
2023/09/16 03:11:30;;;;;;;14.10;7.13;;;17.30;99.90;;;;;;5013185;28;20045;-56
2023/09/16 03:14:34;;;;;;;10.90;7.13;;;17.30;99.90;;;;;;5008618;28;20057;-57
2023/09/16 03:17:38;;;;;;;13.23;7.22;;;17.30;99.90;;;;;;5021134;28;20060;-56
2023/09/16 03:20:43;;;;;;;11.27;6.82;;;17.30;99.90;;;;;;5013023;28;20048;-58
2023/09/16 03:23:48;;;;;;;10.27;7.35;;;17.30;99.90;;;;;;5009530;28;20516;-55
2023/09/16 03:26:51;;;;;;;8.60;6.97;;;17.40;99.90;;;;;;5012597;28;20052;-56
2023/09/16 03:29:56;;;;;;;11.38;8.43;;;17.50;99.90;;;;;;5013741;28;20064;-56
2023/09/16 03:33:02;;;;;;;9.65;7.25;;;17.40;99.90;;;;;;5010999;28;20515;-55
2023/09/16 03:36:06;;;;;;;11.73;7.65;;;17.40;99.90;;;;;;5005013;28;20044;-56
2023/09/16 03:39:10;;;;;;;12.02;7.88;;;17.50;99.90;;;;;;5005627;28;20052;-53
2023/09/16 03:42:14;;;;;;;11.27;7.70;;;17.50;99.90;;;;;;5012392;28;20044;-53
2023/09/16 03:45:18;;;;;;;12.45;7.90;;;17.50;99.90;;;;;;5006448;28;20057;-58
2023/09/16 03:48:24;;;;;;;12.65;7.78;;;17.50;99.90;;;;;;5012812;28;20053;-57
2023/09/16 03:51:28;;;;;;;13.27;8.43;;;17.60;99.90;;;;;;5007043;28;20040;-58
2023/09/16 03:54:32;;;;;;;9.82;7.75;;;17.60;99.90;;;;;;5012260;28;20041;-57
2023/09/16 03:57:36;;;;;;;12.73;8.40;;;17.60;99.90;;;;;;5012634;28;20507;-57
2023/09/16 04:00:40;;;;;;;11.15;7.82;;;17.60;99.90;;;;;;5010877;28;20057;-59
2023/09/16 04:03:44;;;;;;;12.15;7.63;;;17.70;99.90;;;;;;5012812;28;20396;-58
2023/09/16 04:06:48;;;;;;;13.85;7.95;;;17.80;99.90;;;;;;5013153;28;20049;-57
2023/09/16 04:09:52;;;;;;;11.00;7.68;;;17.90;99.90;;;;;;5007090;28;20049;-53
2023/09/16 04:12:56;;;;;;;13.98;9.02;;;17.60;99.90;;;;;;5012856;28;20044;-57
2023/09/16 04:16:00;;;;;;;13.52;8.00;;;17.30;99.90;;;;;;5011351;28;20049;-57
2023/09/16 04:19:04;;;;;;;13.27;7.55;;;17.20;99.90;;;;;;5011476;28;20036;-57
2023/09/16 04:22:08;;;;;;;13.13;8.23;;;17.20;99.90;;;;;;5012065;28;20515;-54
2023/09/16 04:25:13;;;;;;;10.50;7.68;;;17.20;99.90;;;;;;5011543;28;20045;-54
2023/09/16 04:28:17;;;;;;;11.25;7.63;;;17.20;99.90;;;;;;5011164;28;20061;-57
2023/09/16 04:31:21;;;;;;;13.70;8.43;;;17.30;99.90;;;;;;5001797;28;20045;-57
2023/09/16 04:34:26;;;;;;;13.20;7.65;;;17.30;99.90;;;;;;5004346;28;20032;-54
2023/09/16 04:37:30;;;;;;;11.40;7.72;;;17.20;99.90;;;;;;5009501;28;20110;-53
2023/09/16 04:40:34;;;;;;;13.63;8.05;;;16.90;99.90;;;;;;5007745;28;20516;-53
2023/09/16 04:43:38;;;;;;;10.35;7.47;;;16.80;99.90;;;;;;5010373;28;20652;-54
2023/09/16 04:46:45;;;;;;;10.55;8.05;;;16.80;99.90;;;;;;5010380;28;20044;-56
2023/09/16 04:49:50;;;;;;;11.60;7.25;;;16.90;99.90;;;;;;5010947;28;20037;-54
2023/09/16 04:52:56;;;;;;;13.98;8.02;;;17.00;99.90;;;;;;5012168;28;20060;-57
2023/09/16 04:56:00;;;;;;;13.38;8.55;;;17.00;99.90;;;;;;5012072;28;20124;-54
2023/09/16 04:59:05;;;;;;;11.32;7.45;;;16.90;99.90;;;;;;5010766;28;20036;-57
2023/09/16 05:02:09;;;;;;;9.50;7.07;;;17.00;99.90;;;;;;5003329;28;20052;-56
2023/09/16 05:05:14;;;;;;;13.88;7.50;;;17.00;99.90;;;;;;5010752;28;20041;-55
2023/09/16 05:08:19;;;;;;;11.48;8.15;;;17.10;99.90;;;;;;5004480;28;20511;-54
2023/09/16 05:11:23;;;;;;;21.27;9.32;;;17.20;99.90;;;;;;5005185;28;20061;-54
2023/09/16 05:14:34;;;;;;;20.40;8.80;;;17.30;99.90;;;;;;5010066;28;20049;-56
2023/09/16 05:17:40;;;;;;;12.05;8.07;;;17.40;99.90;;;;;;5011094;28;20040;-57
2023/09/16 05:20:43;;;;;;;12.13;7.55;;;17.30;99.90;;;;;;5009215;28;20049;-58
2023/09/16 05:23:52;;;;;;;11.10;7.75;;;17.30;99.90;;;;;;5005921;28;20104;-54
2023/09/16 05:26:56;;;;;;;11.40;6.82;;;17.30;99.90;;;;;;5010543;28;20518;-54
2023/09/16 05:30:01;;;;;;;10.95;7.72;;;17.30;99.90;;;;;;5010712;28;20060;-55
2023/09/16 05:33:12;;;;;;;12.10;7.97;;;17.30;99.90;;;;;;5009631;28;20032;-55
2023/09/16 05:36:16;;;;;;;11.25;7.53;;;17.50;99.90;;;;;;5011564;28;20044;-57
2023/09/16 05:39:21;;;;;;;11.70;7.05;;;17.60;99.90;;;;;;5011460;28;20397;-57
2023/09/16 05:42:25;;;;;;;10.50;7.35;;;17.70;99.90;;;;;;5010095;28;20041;-57
2023/09/16 05:45:28;;;;;;;12.77;6.53;;;17.70;99.90;;;;;;5010211;28;20053;-55
2023/09/16 05:48:32;;;;;;;10.60;6.50;;;17.90;99.90;;;;;;5009067;28;20045;-57
2023/09/16 05:51:36;;;;;;;12.77;7.22;;;18.10;99.90;;;;;;5021719;28;20044;-55
2023/09/16 05:54:40;;;;;;;12.82;8.18;;;18.30;99.90;;;;;;5010831;28;20040;-56
2023/09/16 05:57:45;;;;;;;12.85;7.88;;;18.50;99.90;;;;;;5005528;28;20409;-54
2023/09/16 06:00:56;;;;;;;12.48;7.60;;;18.60;99.90;;;;;;5010406;28;20049;-57
2023/09/16 06:04:01;;;;;;;9.40;7.35;;;18.70;99.90;;;;;;5010052;28;20526;-54
2023/09/16 06:07:07;;;;;;;12.90;7.32;;;18.90;99.90;;;;;;5007590;28;20053;-58
2023/09/16 06:10:12;;;;;;;12.77;7.20;;;19.00;99.90;;;;;;5011206;28;20408;-58
2023/09/16 06:13:16;;;;;;;10.02;7.50;;;19.20;99.90;;;;;;5009880;28;20033;-58
2023/09/16 06:16:20;;;;;;;13.30;7.70;;;19.10;99.90;;;;;;5007406;28;20041;-57
2023/09/16 06:19:28;;;;;;;12.18;7.50;;;19.30;99.90;;;;;;5010404;28;20052;-56
2023/09/16 06:22:33;;;;;;;11.60;7.35;;;19.30;99.90;;;;;;5010220;28;20516;-54
2023/09/16 06:25:38;;;;;;;9.32;7.13;;;19.50;99.90;;;;;;5008251;28;20519;-55
2023/09/16 06:28:42;;;;;;;12.27;6.15;;;19.70;99.90;;;;;;5010990;28;20049;-54
2023/09/16 06:31:46;;;;;;;9.70;6.68;;;19.60;99.90;;;;;;5009780;28;20044;-58
2023/09/16 06:34:52;;;;;;;13.27;6.80;;;19.40;99.90;;;;;;5003801;28;20057;-58
2023/09/16 06:37:56;;;;;;;11.70;6.30;;;19.30;99.90;;;;;;5009950;28;20409;-54
2023/09/16 06:41:01;;;;;;;9.48;6.72;;;19.50;99.90;;;;;;5009901;28;20412;-56
2023/09/16 06:44:05;;;;;;;14.77;6.13;;;19.70;99.90;;;;;;5003913;28;20045;-56
2023/09/16 06:47:09;;;;;;;12.85;6.05;;;20.10;99.90;;;;;;5009932;28;20053;-55
2023/09/16 06:50:12;;;;;;;9.07;6.82;;;20.30;99.90;;;;;;5010528;28;20412;-58
2023/09/16 06:53:16;;;;;;;10.48;6.18;;;20.50;99.90;;;;;;5003703;28;20049;-54
2023/09/16 06:56:21;;;;;;;14.98;6.22;;;20.70;99.90;;;;;;5010704;28;20033;-54
2023/09/16 06:59:25;;;;;;;15.80;7.10;;;20.70;99.90;;;;;;5008216;28;20044;-54
2023/09/16 07:02:29;;;;;;;9.25;5.88;;;20.80;99.90;;;;;;5014389;28;20057;-55
2023/09/16 07:05:33;;;;;;;7.78;5.60;;;20.90;99.90;;;;;;5013960;28;20045;-57
2023/09/16 07:08:36;;;;;;;13.73;6.38;;;20.90;99.90;;;;;;5011294;28;20037;-56
2023/09/16 07:11:40;;;;;;;9.75;6.55;;;20.80;99.90;;;;;;5014172;28;20115;-57
2023/09/16 07:14:44;;;;;;;10.38;6.70;;;20.50;99.90;;;;;;5013592;28;20036;-57
2023/09/16 07:17:48;;;;;;;8.65;5.78;;;20.30;99.90;;;;;;5006487;28;20053;-58
2023/09/16 07:20:52;;;;;;;7.60;5.35;;;20.30;99.90;;;;;;5014060;28;20384;-57
2023/09/16 07:24:00;;;;;;;10.07;5.63;;;20.50;99.90;;;;;;5013538;28;20052;-57
2023/09/16 07:27:05;;;;;;;9.50;6.10;;;20.60;99.90;;;;;;5013299;28;20033;-58
2023/09/16 07:30:09;;;;;;;8.90;6.40;;;20.90;99.90;;;;;;5013833;28;20040;-54
2023/09/16 07:33:13;;;;;;;10.15;5.78;;;21.10;99.90;;;;;;5013729;28;20053;-58
2023/09/16 07:36:17;;;;;;;7.20;5.53;;;21.40;99.90;;;;;;5006803;28;20049;-55
2023/09/16 07:39:21;;;;;;;7.55;5.38;;;21.70;99.90;;;;;;5013959;28;20037;-55
2023/09/16 07:42:25;;;;;;;10.93;5.78;;;22.10;99.90;;;;;;5010310;28;20041;-55
2023/09/16 07:45:29;;;;;;;10.13;4.82;;;22.30;99.90;;;;;;5013196;28;20049;-56
2023/09/16 07:48:33;;;;;;;7.97;4.93;;;22.30;99.90;;;;;;5013379;28;20040;-55
2023/09/16 07:51:39;;;;;;;8.05;4.75;;;22.40;99.90;;;;;;5008525;28;20052;-53
2023/09/16 07:54:43;;;;;;;5.47;4.45;;;22.60;99.90;;;;;;5012932;28;20041;-55
2023/09/16 07:57:47;;;;;;;7.93;4.30;;;22.90;99.90;;;;;;5010716;28;20053;-55
2023/09/16 08:00:53;;;;;;;7.38;4.45;;;23.10;99.90;;;;;;5013236;28;20037;-58
2023/09/16 08:03:57;;;;;;;6.22;3.63;;;23.80;99.90;;;;;;5012811;28;20048;-56
2023/09/16 08:07:01;;;;;;;10.75;2.92;;;25.70;99.90;;;;;;5006146;28;20049;-58
2023/09/16 08:10:05;;;;;;;3.33;2.95;;;29.00;99.90;;;;;;5013096;28;20053;-57
2023/09/16 08:13:09;;;;;;;4.38;2.83;;;32.70;99.90;;;;;;5012801;28;20048;-57
2023/09/16 08:16:13;;;;;;;5.00;2.45;;;35.20;97.90;;;;;;5008200;28;20113;-58
2023/09/16 08:19:19;;;;;;;6.30;2.90;;;36.40;95.00;;;;;;5013030;28;20041;-58
2023/09/16 08:22:23;;;;;;;6.55;2.88;;;35.80;93.50;;;;;;5012813;28;20045;-57
2023/09/16 08:25:28;;;;;;;4.85;2.50;;;35.00;93.60;;;;;;5008171;28;20041;-58
2023/09/16 08:28:34;;;;;;;3.17;2.30;;;34.20;94.50;;;;;;5012985;28;20041;-58
2023/09/16 08:31:38;;;;;;;4.20;2.83;;;33.30;95.10;;;;;;5006178;28;20038;-57
2023/09/16 08:34:42;;;;;;;5.97;3.20;;;32.70;95.30;;;;;;5008622;28;20033;-58
2023/09/16 08:37:45;;;;;;;7.97;3.22;;;32.10;96.00;;;;;;5012556;28;20041;-58
2023/09/16 08:41:04;;;;;;;9.00;3.08;;;31.90;96.30;;;;;;5011148;28;20056;-58
2023/09/16 08:44:09;;;;;;;5.35;3.15;;;32.10;96.10;;;;;;5011533;28;20045;-58
2023/09/16 08:47:24;;;;;;;6.10;3.15;;;32.80;95.90;;;;;;5012224;28;20054;-58
2023/09/16 08:50:30;;;;;;;4.35;3.20;;;33.00;95.40;;;;;;5006802;28;20049;-58
2023/09/16 08:53:36;;;;;;;6.22;3.13;;;33.00;94.90;;;;;;5007176;28;20041;-59
2023/09/16 08:56:42;;;;;;;4.72;2.97;;;35.60;93.30;;;;;;5012144;28;20045;-56
2023/09/16 08:59:48;;;;;;;7.00;3.08;;;38.40;90.30;;;;;;5011393;28;20045;-58
2023/09/16 09:02:54;;;;;;;5.70;2.70;;;39.40;88.30;;;;;;5009413;28;20048;-54
2023/09/16 09:05:58;;;;;;;4.53;2.63;;;40.20;86.30;;;;;;5012004;28;20053;-58
2023/09/16 09:09:02;;;;;;;3.92;2.45;;;41.30;84.40;;;;;;5008931;28;20060;-57
2023/09/16 09:12:07;;;;;;;3.20;2.10;;;42.60;80.70;;;;;;5011494;28;20535;-54
2023/09/16 09:15:13;;;;;;;4.20;2.30;;;43.00;77.90;;;;;;5011366;28;20753;-55
2023/09/16 09:18:18;;;;;;;6.30;2.20;;;43.00;77.20;;;;;;5007303;28;20646;-56
2023/09/16 09:21:22;;;;;;;3.47;1.83;;;43.80;75.80;;;;;;5011739;28;20040;-52
2023/09/16 09:24:26;;;;;;;3.55;2.08;;;43.70;73.90;;;;;;5011291;28;20526;-57
2023/09/16 09:27:30;;;;;;;2.78;2.00;;;44.50;73.40;;;;;;5011438;28;20072;-55
2023/09/16 09:30:34;;;;;;;6.45;2.60;;;44.60;72.60;;;;;;5011247;28;20033;-55
2023/09/16 09:33:42;;;;;;;5.35;2.20;;;45.90;71.50;;;;;;5009571;28;20041;-52
2023/09/16 09:36:47;;;;;;;9.07;2.87;;;40.40;72.60;;;;;;5011523;28;20403;-58
2023/09/16 09:40:12;;;;;;;4.38;2.83;;;36.40;79.30;;;;;;5011452;28;20271;-57
2023/09/16 09:43:19;;;;;;;5.88;2.60;;;33.80;84.10;;;;;;5005995;28;20044;-58
2023/09/16 09:46:23;;;;;;;5.30;3.28;;;34.60;84.30;;;;;;5011282;28;20041;-54
2023/09/16 09:49:27;;;;;;;8.38;3.65;;;34.40;85.50;;;;;;5011183;28;20049;-58
2023/09/16 09:52:31;;;;;;;7.40;3.88;;;35.80;84.50;;;;;;5007755;28;20044;-58
2023/09/16 09:55:36;;;;;;;7.32;3.28;;;36.50;81.90;;;;;;5010778;28;20245;-58
2023/09/16 09:58:40;;;;;;;5.82;3.50;;;34.30;85.90;;;;;;5011387;28;20037;-54
2023/09/16 10:01:45;;;;;;;7.32;3.60;;;33.30;88.80;;;;;;5007606;28;20409;-57
2023/09/16 10:04:55;;;;;;;6.45;3.70;;;33.60;89.00;;;;;;5007710;28;20053;-55
2023/09/16 10:07:59;;;;;;;6.53;3.47;;;36.50;83.30;;;;;;5008952;28;20052;-58
2023/09/16 10:11:03;;;;;;;7.10;3.10;;;36.60;83.30;;;;;;5009604;28;20401;-56
2023/09/16 10:14:08;;;;;;;6.88;3.60;;;34.10;87.30;;;;;;5010634;28;20044;-57
2023/09/16 10:17:12;;;;;;;5.97;3.05;;;34.10;88.90;;;;;;5007497;28;20052;-56
2023/09/16 10:20:17;;;;;;;6.15;3.05;;;36.80;85.20;;;;;;5011124;28;20496;-56
2023/09/16 10:23:22;;;;;;;8.15;3.00;;;38.90;81.00;;;;;;5010657;28;20045;-55
2023/09/16 10:26:26;;;;;;;6.30;3.25;;;39.10;79.70;;;;;;5004726;28;20041;-57
2023/09/16 10:29:30;;;;;;;8.10;3.30;;;36.50;82.70;;;;;;5011059;28;20049;-55
2023/09/16 10:32:34;;;;;;;5.68;3.55;;;36.50;84.00;;;;;;5006711;28;20057;-56
2023/09/16 10:35:42;;;;;;;6.95;3.53;;;36.40;83.60;;;;;;5009587;28;20037;-54
2023/09/16 10:38:47;;;;;;;9.60;3.55;;;37.20;82.70;;;;;;5014807;28;20066;-54
2023/09/16 10:41:53;;;;;;;10.27;4.07;;;35.90;84.30;;;;;;5010992;28;20036;-54
2023/09/16 10:45:01;;;;;;;14.27;4.00;;;34.80;85.10;;;;;;5014202;28;20056;-57
2023/09/16 10:48:06;;;;;;;6.22;4.57;;;34.70;86.90;;;;;;5012581;28;20511;-56
2023/09/16 10:51:18;;;;;;;7.32;3.83;;;34.00;88.10;;;;;;5014170;28;20044;-58
2023/09/16 10:54:29;;;;;;;8.10;3.60;;;33.90;88.60;;;;;;5013914;28;20033;-57
2023/09/16 10:57:39;;;;;;;9.05;4.10;;;33.90;88.10;;;;;;5008809;28;20033;-56
2023/09/16 11:00:54;;;;;;;7.55;4.18;;;33.30;89.50;;;;;;5014645;28;20033;-55
2023/09/16 11:04:09;;;;;;;11.70;3.83;;;33.10;87.10;;;;;;5012435;28;20045;-57
2023/09/16 11:07:14;;;;;;;7.28;3.80;;;33.80;86.40;;;;;;5006419;28;20033;-56
2023/09/16 11:10:20;;;;;;;10.15;3.90;;;34.20;85.80;;;;;;5014319;28;20056;-57
2023/09/16 11:13:26;;;;;;;8.40;3.85;;;35.70;84.10;;;;;;5011962;28;20045;-58
2023/09/16 11:16:47;;;;;;;7.25;4.13;;;34.80;84.80;;;;;;5014063;28;20040;-57
2023/09/16 11:19:52;;;;;;;10.20;4.95;;;34.00;85.80;;;;;;5008553;28;20098;-58
2023/09/16 11:22:56;;;;;;;9.48;3.75;;;36.60;83.00;;;;;;5013859;28;20048;-57
2023/09/16 11:26:02;;;;;;;8.43;3.40;;;38.00;81.60;;;;;;5013912;28;20404;-55
2023/09/16 11:29:31;;;;;;;12.00;3.92;;;37.20;79.30;;;;;;5012548;28;20049;-57
2023/09/16 11:32:35;;;;;;;6.18;3.88;;;36.30;81.30;;;;;;5013675;28;20052;-58
2023/09/16 11:35:39;;;;;;;9.60;4.13;;;32.90;85.20;;;;;;5011805;28;20053;-58
2023/09/16 11:39:05;;;;;;;7.85;4.28;;;33.10;87.10;;;;;;5009963;28;20659;-54
2023/09/16 11:42:12;;;;;;;6.93;4.32;;;33.40;88.00;;;;;;5013387;28;20040;-54
2023/09/16 11:45:18;;;;;;;8.15;3.75;;;34.50;85.60;;;;;;5010674;28;20041;-57
2023/09/16 11:48:22;;;;;;;9.13;4.25;;;37.50;81.90;;;;;;5013689;28;20397;-58
2023/09/16 11:51:26;;;;;;;8.02;3.72;;;35.20;82.30;;;;;;5013369;28;20057;-54
2023/09/16 11:54:30;;;;;;;4.75;3.10;;;34.70;84.40;;;;;;5007507;28;20037;-57
2023/09/16 11:57:35;;;;;;;6.70;3.00;;;37.80;79.80;;;;;;5008137;28;20393;-55
2023/09/16 12:00:39;;;;;;;8.95;3.00;;;36.20;81.90;;;;;;5013389;28;20037;-54
2023/09/16 12:03:43;;;;;;;7.10;2.90;;;35.10;81.30;;;;;;5012459;28;20104;-58
2023/09/16 12:06:48;;;;;;;7.70;3.63;;;36.60;79.60;;;;;;5009582;28;20045;-56
2023/09/16 12:09:52;;;;;;;7.90;3.17;;;39.10;77.60;;;;;;5013099;28;20041;-55
2023/09/16 12:12:56;;;;;;;9.10;2.80;;;38.50;77.00;;;;;;5008016;28;20049;-53
2023/09/16 12:16:00;;;;;;;7.28;3.30;;;37.90;76.40;;;;;;5012856;28;20064;-54
2023/09/16 12:19:04;;;;;;;5.18;3.15;;;36.40;78.10;;;;;;5012974;28;20397;-56
2023/09/16 12:22:09;;;;;;;9.35;3.45;;;35.20;80.50;;;;;;5004931;28;20057;-57
2023/09/16 12:25:13;;;;;;;9.23;3.45;;;33.40;83.50;;;;;;5012392;28;20053;-54
2023/09/16 12:28:21;;;;;;;6.80;3.35;;;33.00;85.60;;;;;;5010235;28;20037;-57
2023/09/16 12:31:25;;;;;;;7.82;3.30;;;33.20;85.20;;;;;;5006126;28;20045;-57
2023/09/16 12:34:29;;;;;;;7.47;3.28;;;34.10;83.70;;;;;;5012352;28;20037;-57
2023/09/16 12:37:33;;;;;;;9.88;3.60;;;34.20;84.10;;;;;;5009205;28;20045;-57
2023/09/16 12:40:37;;;;;;;10.35;3.60;;;34.10;88.20;;;;;;5007795;28;20825;-58
2023/09/16 12:43:43;;;;;;;7.38;3.22;;;36.20;88.20;;;;;;5011928;28;20044;-57
2023/09/16 12:46:49;;;;;;;13.85;3.67;;;38.70;80.00;;;;;;5001552;28;20117;-58
2023/09/16 12:49:54;;;;;;;4.80;2.85;;;38.30;78.70;;;;;;5012201;28;20491;-58
2023/09/16 12:52:58;;;;;;;8.73;3.47;;;37.20;80.10;;;;;;5011840;28;20057;-57
2023/09/16 12:56:03;;;;;;;5.95;2.78;;;36.10;81.50;;;;;;5010751;28;20052;-57
2023/09/16 12:59:08;;;;;;;5.72;3.35;;;33.70;80.30;;;;;;5012307;28;20049;-59
2023/09/16 13:02:12;;;;;;;7.30;3.20;;;31.70;85.10;;;;;;5008233;28;20040;-57
2023/09/16 13:05:23;;;;;;;9.80;3.67;;;31.90;86.00;;;;;;5011740;28;20507;-58
2023/09/16 13:08:28;;;;;;;9.88;3.40;;;30.80;87.50;;;;;;5012170;28;20506;-55
2023/09/16 13:11:32;;;;;;;7.85;3.30;;;31.90;87.50;;;;;;5009048;28;20049;-58
2023/09/16 13:14:38;;;;;;;13.98;3.97;;;33.20;84.50;;;;;;5006480;28;20041;-56
2023/09/16 13:17:43;;;;;;;12.35;3.75;;;33.80;83.90;;;;;;5011875;28;20044;-58
2023/09/16 13:20:55;;;;;;;6.38;4.03;;;35.20;82.90;;;;;;5001534;28;20416;-57
2023/09/16 13:24:00;;;;;;;7.63;3.58;;;33.70;83.00;;;;;;5009344;28;20045;-54
2023/09/16 13:27:08;;;;;;;5.65;3.17;;;32.30;84.40;;;;;;5011573;28;20045;-59
2023/09/16 13:30:12;;;;;;;7.40;3.75;;;33.40;84.00;;;;;;5008303;28;20041;-56
2023/09/16 13:33:16;;;;;;;8.52;3.78;;;34.10;83.70;;;;;;5011147;28;20404;-60
2023/09/16 13:36:22;;;;;;;8.88;4.30;;;31.50;86.50;;;;;;5011559;28;20045;-57
2023/09/16 13:39:26;;;;;;;12.00;4.15;;;30.20;89.00;;;;;;5009054;28;20041;-56
2023/09/16 13:42:30;;;;;;;9.52;3.63;;;29.60;90.50;;;;;;5011511;28;20527;-54
2023/09/16 13:45:35;;;;;;;9.32;3.90;;;29.40;91.00;;;;;;5011012;28;20046;-54
2023/09/16 13:48:40;;;;;;;9.18;4.05;;;29.20;91.20;;;;;;5006852;28;20052;-57
2023/09/16 13:51:44;;;;;;;6.53;3.95;;;29.90;91.20;;;;;;5011385;28;20049;-57
2023/09/16 13:54:48;;;;;;;9.93;3.55;;;30.90;90.20;;;;;;5010858;28;20049;-57
2023/09/16 13:57:56;;;;;;;7.63;3.60;;;32.20;88.40;;;;;;5008213;28;20500;-56
2023/09/16 14:01:00;;;;;;;6.85;3.38;;;32.10;87.90;;;;;;5010911;28;20048;-53
2023/09/16 14:04:04;;;;;;;7.10;2.95;;;31.80;87.50;;;;;;5010001;28;20591;-55
2023/09/16 14:07:09;;;;;;;6.57;3.00;;;32.00;86.40;;;;;;5004065;28;20049;-57
2023/09/16 14:10:13;;;;;;;4.63;3.10;;;31.70;86.50;;;;;;5005594;28;20041;-59
2023/09/16 14:13:16;;;;;;;6.03;3.28;;;31.40;86.20;;;;;;5010660;28;20049;-58
2023/09/16 14:16:20;;;;;;;9.88;3.50;;;31.30;87.50;;;;;;5010929;28;20048;-57
2023/09/16 14:19:24;;;;;;;9.23;3.45;;;30.30;88.10;;;;;;4999444;28;20512;-56
2023/09/16 14:22:29;;;;;;;6.97;2.78;;;29.80;87.50;;;;;;5004764;28;20056;-57
2023/09/16 14:25:33;;;;;;;5.80;2.88;;;29.30;87.70;;;;;;5010638;28;20061;-55
2023/09/16 14:28:37;;;;;;;10.10;3.30;;;29.50;87.10;;;;;;5004043;28;20041;-58
2023/09/16 14:31:41;;;;;;;7.53;3.00;;;30.00;86.90;;;;;;5010715;28;20048;-56
2023/09/16 14:34:45;;;;;;;6.32;3.30;;;30.00;84.20;;;;;;5009817;28;20045;-54
2023/09/16 14:37:51;;;;;;;7.07;2.58;;;30.50;84.30;;;;;;5007498;28;20049;-57
2023/09/16 14:40:55;;;;;;;6.10;3.30;;;30.30;83.80;;;;;;5010619;28;20041;-59
2023/09/16 14:43:59;;;;;;;6.63;2.90;;;30.30;83.20;;;;;;5006257;28;20049;-56
2023/09/16 14:47:04;;;;;;;6.28;2.80;;;29.70;84.60;;;;;;5010666;28;20073;-58
2023/09/16 14:50:08;;;;;;;8.30;3.78;;;30.10;85.00;;;;;;5009250;28;20129;-54
2023/09/16 14:53:12;;;;;;;12.48;3.28;;;30.00;85.20;;;;;;5010164;28;20447;-57
2023/09/16 14:56:16;;;;;;;4.70;2.60;;;30.10;85.40;;;;;;5009339;28;20037;-55
2023/09/16 14:59:19;;;;;;;5.15;2.90;;;29.90;85.70;;;;;;5005637;28;20507;-56
2023/09/16 15:02:23;;;;;;;8.25;3.25;;;29.80;86.20;;;;;;5002734;28;20053;-57
2023/09/16 15:05:28;;;;;;;7.20;3.40;;;29.80;86.50;;;;;;5008893;28;20042;-55
2023/09/16 15:08:32;;;;;;;6.45;3.40;;;29.60;87.10;;;;;;5005364;28;20050;-56
2023/09/16 15:11:36;;;;;;;8.70;3.60;;;29.40;88.50;;;;;;5000417;28;20046;-58
2023/09/16 15:14:40;;;;;;;11.85;3.55;;;29.30;89.50;;;;;;5002767;28;20045;-57
2023/09/16 15:17:43;;;;;;;9.60;4.20;;;29.30;90.30;;;;;;5000486;28;20037;-56
2023/09/16 15:20:48;;;;;;;8.35;3.88;;;29.10;90.60;;;;;;5007344;28;20040;-56
2023/09/16 15:23:53;;;;;;;8.07;3.75;;;28.80;91.30;;;;;;5010193;28;20045;-59
2023/09/16 15:26:59;;;;;;;7.70;3.80;;;28.90;91.90;;;;;;5001303;28;20053;-54
2023/09/16 15:30:07;;;;;;;9.18;3.88;;;28.80;92.20;;;;;;5013452;28;20049;-57
2023/09/16 15:33:11;;;;;;;9.80;4.47;;;28.90;92.50;;;;;;5010855;28;20041;-54
2023/09/16 15:36:17;;;;;;;9.55;4.47;;;28.80;92.90;;;;;;5013135;28;20032;-54
2023/09/16 15:39:21;;;;;;;12.45;4.63;;;28.80;92.90;;;;;;5013780;28;20113;-58
2023/09/16 15:42:25;;;;;;;10.70;4.20;;;28.80;93.10;;;;;;5009951;28;20041;-57
2023/09/16 15:45:29;;;;;;;10.45;3.95;;;28.70;93.30;;;;;;5005446;28;20065;-55
2023/09/16 15:48:34;;;;;;;9.35;4.15;;;28.70;93.30;;;;;;5013208;28;20044;-54
2023/09/16 15:51:38;;;;;;;14.13;4.47;;;28.70;93.60;;;;;;5001618;28;20049;-56
2023/09/16 15:54:42;;;;;;;11.30;4.85;;;28.60;93.80;;;;;;5008258;28;20053;-55
2023/09/16 15:57:46;;;;;;;9.20;4.63;;;28.40;93.90;;;;;;5013434;28;20043;-56
2023/09/16 16:00:55;;;;;;;10.73;4.28;;;28.40;94.30;;;;;;5013447;28;20041;-55